Time;durP1;ratioP1;P1;durP2;ratioP2;P2;SDS_P1;SDS_P2;PMS_P1;PMS_P2;Temp;Humidity;BMP_temperature;BMP_pressure;BME280_temperature;BME280_humidity;BME280_pressure;Samples;Min_cycle;Max_cycle;Signal;HPM_P1;HPM_P2
2022/08/16 00:00:04;;;;;;;1.38;0.93;;;;;;;;;;4974740;28;20027;-81
2022/08/16 00:02:29;;;;;;;0.82;0.77;;;;;;;;;;4977166;28;20023;-82
2022/08/16 00:05:02;;;;;;;2.85;0.88;;;;;;;;;;4993712;28;20033;-82
2022/08/16 00:07:29;;;;;;;1.50;0.85;;;;;;;;;;4973758;28;20038;-83
2022/08/16 00:09:54;;;;;;;0.95;0.65;;;;;;;;;;4972595;28;20441;-82
2022/08/16 00:12:19;;;;;;;0.63;0.63;;;;;;;;;;4977812;28;20022;-82
2022/08/16 00:14:47;;;;;;;0.85;0.75;;;;;;;;;;4977839;28;20027;-81
2022/08/16 00:17:15;;;;;;;0.98;0.90;;;;;;;;;;4977612;28;20025;-82
2022/08/16 00:19:41;;;;;;;0.77;0.75;;;;;;;;;;4977068;28;20374;-83
2022/08/16 00:22:09;;;;;;;1.60;1.15;;;;;;;;;;4993842;28;20159;-83
2022/08/16 00:24:34;;;;;;;1.05;0.80;;;;;;;;;;4977999;28;20018;-83
2022/08/16 00:27:01;;;;;;;2.25;1.10;;;;;;;;;;4994081;28;20121;-83
2022/08/16 00:29:26;;;;;;;1.17;1.00;;;;;;;;;;4977039;28;20026;-82
2022/08/16 00:31:54;;;;;;;1.17;1.08;;;;;;;;;;4976711;28;20026;-81
2022/08/16 00:34:20;;;;;;;1.83;0.93;;;;;;;;;;4977421;28;20441;-82
2022/08/16 00:36:49;;;;;;;1.95;1.10;;;;;;;;;;4977468;28;20038;-83
2022/08/16 00:39:16;;;;;;;1.08;0.98;;;;;;;;;;4977652;28;20029;-83
2022/08/16 00:41:43;;;;;;;1.38;0.85;;;;;;;;;;4977759;28;20029;-84
2022/08/16 00:44:12;;;;;;;1.13;0.95;;;;;;;;;;4995858;28;20456;-83
2022/08/16 00:46:57;;;;;;;0.80;0.80;;;;;;;;;;4965635;28;20030;-83
2022/08/16 00:49:25;;;;;;;0.95;0.70;;;;;;;;;;4969997;28;20071;-84
2022/08/16 00:51:51;;;;;;;1.13;0.95;;;;;;;;;;4981535;28;20026;-82
2022/08/16 00:54:17;;;;;;;0.60;0.60;;;;;;;;;;4981377;28;20050;-83
2022/08/16 00:56:46;;;;;;;1.67;1.55;;;;;;;;;;4981497;28;20022;-85
2022/08/16 00:59:16;;;;;;;1.48;1.35;;;;;;;;;;4980775;28;20022;-85
2022/08/16 01:01:46;;;;;;;0.98;0.80;;;;;;;;;;4980536;28;20097;-83
2022/08/16 01:04:15;;;;;;;2.53;1.17;;;;;;;;;;4997597;28;20026;-82
2022/08/16 01:06:43;;;;;;;1.08;0.95;;;;;;;;;;4982817;28;20068;-80
2022/08/16 01:09:11;;;;;;;2.03;1.45;;;;;;;;;;4980369;28;20054;-82
2022/08/16 01:11:37;;;;;;;1.25;0.88;;;;;;;;;;4981047;28;20054;-84
2022/08/16 01:14:40;;;;;;;1.38;1.15;;;;;;;;;;4978904;28;20491;-84
2022/08/16 01:17:11;;;;;;;1.27;1.17;;;;;;;;;;4978432;28;20612;-86
2022/08/16 01:19:46;;;;;;;2.20;1.95;;;;;;;;;;4963314;28;20030;-83
2022/08/16 01:22:27;;;;;;;1.20;0.70;;;;;;;;;;4963470;28;20062;-85
2022/08/16 01:24:56;;;;;;;1.00;0.73;;;;;;;;;;4963322;28;20034;-82
2022/08/16 01:27:27;;;;;;;1.02;0.93;;;;;;;;;;4962689;28;20229;-82
2022/08/16 01:30:10;;;;;;;1.08;0.90;;;;;;;;;;4949651;28;20046;-83
2022/08/16 01:32:42;;;;;;;2.47;1.05;;;;;;;;;;4986858;28;20121;-84
2022/08/16 01:35:22;;;;;;;1.52;1.25;;;;;;;;;;4979167;28;20175;-83
2022/08/16 01:37:51;;;;;;;1.30;1.00;;;;;;;;;;4978369;28;20537;-80
2022/08/16 01:40:19;;;;;;;1.75;1.02;;;;;;;;;;4995364;28;20234;-83
2022/08/16 01:42:48;;;;;;;2.42;1.15;;;;;;;;;;4963077;28;20036;-84
2022/08/16 01:45:16;;;;;;;1.23;1.00;;;;;;;;;;4961829;28;20053;-85
2022/08/16 01:47:42;;;;;;;2.50;1.15;;;;;;;;;;4968325;28;20120;-84
2022/08/16 01:50:08;;;;;;;1.10;1.00;;;;;;;;;;4980227;28;20034;-85
2022/08/16 01:52:34;;;;;;;1.77;0.98;;;;;;;;;;4980110;28;20030;-85
2022/08/16 01:55:01;;;;;;;1.50;0.95;;;;;;;;;;4980011;28;20449;-83
2022/08/16 01:57:27;;;;;;;0.40;0.40;;;;;;;;;;4996750;28;20026;-87
2022/08/16 01:59:53;;;;;;;0.90;0.88;;;;;;;;;;4981198;28;20117;-87
2022/08/16 02:02:18;;;;;;;2.72;1.00;;;;;;;;;;4975459;28;20110;-88
2022/08/16 02:04:49;;;;;;;1.17;0.93;;;;;;;;;;4990899;28;20107;-88
2022/08/16 02:07:20;;;;;;;1.95;1.20;;;;;;;;;;4980653;28;20026;-87
2022/08/16 02:09:48;;;;;;;1.63;1.27;;;;;;;;;;4977432;28;20154;-89
2022/08/16 02:12:19;;;;;;;0.95;0.80;;;;;;;;;;4961745;28;20027;-86
2022/08/16 02:14:47;;;;;;;2.83;1.45;;;;;;;;;;4971907;28;20087;-88
2022/08/16 02:17:12;;;;;;;1.42;1.02;;;;;;;;;;4997716;28;20121;-87
2022/08/16 02:19:40;;;;;;;1.55;1.45;;;;;;;;;;4981205;28;20065;-88
2022/08/16 02:22:10;;;;;;;2.03;1.30;;;;;;;;;;4997378;28;20042;-86
2022/08/16 02:24:38;;;;;;;1.20;1.00;;;;;;;;;;4997465;28;20030;-87
2022/08/16 02:27:04;;;;;;;1.45;0.70;;;;;;;;;;4981295;28;20026;-88
2022/08/16 02:29:29;;;;;;;1.42;1.33;;;;;;;;;;4998108;28;20029;-90
2022/08/16 02:31:59;;;;;;;1.95;1.27;;;;;;;;;;4984327;28;20023;-84
2022/08/16 02:34:25;;;;;;;1.52;1.20;;;;;;;;;;5010966;28;20024;-87
2022/08/16 02:36:55;;;;;;;1.13;0.93;;;;;;;;;;4987997;28;20046;-88
2022/08/16 02:39:21;;;;;;;1.52;1.13;;;;;;;;;;4979977;28;20030;-87
2022/08/16 02:41:57;;;;;;;3.47;1.42;;;;;;;;;;4996163;28;20046;-87
2022/08/16 02:44:23;;;;;;;4.93;1.10;;;;;;;;;;4982009;28;20594;-89
2022/08/16 02:46:50;;;;;;;1.65;0.85;;;;;;;;;;5003267;28;20061;-86
2022/08/16 02:49:16;;;;;;;0.60;0.60;;;;;;;;;;4978853;28;20034;-90
2022/08/16 02:51:42;;;;;;;2.67;1.23;;;;;;;;;;4972878;28;20041;-88
2022/08/16 02:54:14;;;;;;;0.88;0.82;;;;;;;;;;4963541;28;20068;-86
2022/08/16 02:56:42;;;;;;;;;;;;;;;;;;4963542;28;20108;-87
2022/08/16 02:59:08;;;;;;;1.90;1.40;;;;;;;;;;4967976;28;20000;-87
2022/08/16 03:01:33;;;;;;;1.38;1.20;;;;;;;;;;4971162;28;20060;-87
2022/08/16 03:04:00;;;;;;;1.58;0.93;;;;;;;;;;4965212;28;20038;-87
2022/08/16 03:06:26;;;;;;;1.63;1.23;;;;;;;;;;4962470;28;20087;-87
2022/08/16 03:08:52;;;;;;;0.70;0.70;;;;;;;;;;4962075;28;20170;-87
2022/08/16 03:11:18;;;;;;;1.50;1.00;;;;;;;;;;4978212;28;20026;-89
2022/08/16 03:13:48;;;;;;;1.85;0.88;;;;;;;;;;4961592;28;20041;-88
2022/08/16 03:16:15;;;;;;;1.25;0.88;;;;;;;;;;4964261;28;20042;-88
2022/08/16 03:18:41;;;;;;;1.65;0.85;;;;;;;;;;4978706;28;20108;-88
2022/08/16 03:21:07;;;;;;;3.88;1.10;;;;;;;;;;4978859;28;20074;-88
2022/08/16 03:23:33;;;;;;;0.85;0.70;;;;;;;;;;4977415;28;20045;-85
2022/08/16 03:26:01;;;;;;;1.33;1.00;;;;;;;;;;4977015;28;20031;-87
2022/08/16 03:28:26;;;;;;;1.33;0.85;;;;;;;;;;4982078;28;20473;-85
2022/08/16 03:30:57;;;;;;;3.00;1.08;;;;;;;;;;4980009;28;20026;-87
2022/08/16 03:33:23;;;;;;;1.75;0.82;;;;;;;;;;4994775;28;20073;-88
2022/08/16 03:35:49;;;;;;;1.27;0.90;;;;;;;;;;4978570;28;20062;-88
2022/08/16 03:38:18;;;;;;;2.15;1.25;;;;;;;;;;4974581;28;20027;-88
2022/08/16 03:40:43;;;;;;;2.20;1.90;;;;;;;;;;4979174;28;20026;-87
2022/08/16 03:43:11;;;;;;;1.63;1.30;;;;;;;;;;4982746;28;20022;-89
2022/08/16 03:45:40;;;;;;;1.40;0.95;;;;;;;;;;4981486;28;20030;-87
2022/08/16 03:48:06;;;;;;;1.23;1.17;;;;;;;;;;4974584;28;20066;-85
2022/08/16 03:50:31;;;;;;;1.80;1.45;;;;;;;;;;4958791;28;20026;-84
2022/08/16 03:52:57;;;;;;;1.30;1.20;;;;;;;;;;4961691;28;20117;-84
2022/08/16 03:55:23;;;;;;;1.35;1.25;;;;;;;;;;4978131;28;20034;-85
2022/08/16 03:57:50;;;;;;;2.05;1.50;;;;;;;;;;4974456;28;20039;-89
2022/08/16 04:00:18;;;;;;;1.50;0.95;;;;;;;;;;4959641;28;20026;-86
2022/08/16 04:02:43;;;;;;;0.98;0.77;;;;;;;;;;4979412;28;20021;-89
2022/08/16 04:05:14;;;;;;;0.98;0.70;;;;;;;;;;4976618;28;20038;-88
2022/08/16 04:07:39;;;;;;;1.23;0.98;;;;;;;;;;4972949;28;20121;-89
2022/08/16 04:10:07;;;;;;;1.38;0.93;;;;;;;;;;4974206;28;20102;-87
2022/08/16 04:12:33;;;;;;;1.98;1.05;;;;;;;;;;4975495;28;20178;-88
2022/08/16 04:15:00;;;;;;;2.05;1.00;;;;;;;;;;4958694;28;20135;-87
2022/08/16 04:17:28;;;;;;;3.63;0.98;;;;;;;;;;4959127;28;20364;-88
2022/08/16 04:19:57;;;;;;;2.70;1.35;;;;;;;;;;4961369;28;20438;-89
2022/08/16 04:22:23;;;;;;;1.15;0.88;;;;;;;;;;4966157;28;20125;-86
2022/08/16 04:24:48;;;;;;;2.10;1.20;;;;;;;;;;4981973;28;20105;-87
2022/08/16 04:27:14;;;;;;;2.42;1.48;;;;;;;;;;4978004;28;20456;-85
2022/08/16 04:29:39;;;;;;;1.35;0.98;;;;;;;;;;4962670;28;20034;-86
2022/08/16 04:32:19;;;;;;;1.55;1.10;;;;;;;;;;4963021;28;20435;-85
2022/08/16 04:34:44;;;;;;;2.78;1.40;;;;;;;;;;4985200;28;20062;-87
2022/08/16 04:37:12;;;;;;;1.88;1.10;;;;;;;;;;4981622;28;20018;-86
2022/08/16 04:39:40;;;;;;;1.10;0.93;;;;;;;;;;4987336;28;20346;-89
2022/08/16 04:42:06;;;;;;;0.98;0.88;;;;;;;;;;4981859;28;20461;-86
2022/08/16 04:44:36;;;;;;;1.70;1.13;;;;;;;;;;4982076;28;20026;-86
2022/08/16 04:47:02;;;;;;;1.38;1.08;;;;;;;;;;4981531;28;20030;-85
2022/08/16 04:49:27;;;;;;;3.05;1.80;;;;;;;;;;4989832;28;20028;-87
2022/08/16 04:51:56;;;;;;;1.20;1.10;;;;;;;;;;4998150;28;20468;-86
2022/08/16 04:54:23;;;;;;;2.00;1.00;;;;;;;;;;4986153;28;20033;-86
2022/08/16 04:56:48;;;;;;;2.08;1.50;;;;;;;;;;4981401;28;20048;-86
2022/08/16 04:59:17;;;;;;;1.80;1.23;;;;;;;;;;4981528;28;20038;-87
2022/08/16 05:01:42;;;;;;;1.40;1.25;;;;;;;;;;4981489;28;20034;-87
2022/08/16 05:04:10;;;;;;;1.35;0.95;;;;;;;;;;4980959;28;20033;-89
2022/08/16 05:06:35;;;;;;;1.73;1.02;;;;;;;;;;4981183;28;20113;-87
2022/08/16 05:09:20;;;;;;;0.70;0.65;;;;;;;;;;4997464;28;20030;-85
2022/08/16 05:11:46;;;;;;;1.95;0.90;;;;;;;;;;4981482;28;20122;-87
2022/08/16 05:14:11;;;;;;;1.80;1.38;;;;;;;;;;4988065;28;20453;-88
2022/08/16 05:16:52;;;;;;;2.40;1.40;;;;;;;;;;4986401;28;20030;-92
2022/08/16 05:19:21;;;;;;;0.77;0.52;;;;;;;;;;4999858;28;20037;-87
2022/08/16 05:21:46;;;;;;;0.90;0.70;;;;;;;;;;4994358;28;20073;-88
2022/08/16 05:24:11;;;;;;;2.00;1.08;;;;;;;;;;4979178;28;20182;-89
2022/08/16 05:26:37;;;;;;;1.50;1.30;;;;;;;;;;4979636;28;20077;-87
2022/08/16 05:29:02;;;;;;;1.42;0.80;;;;;;;;;;4963556;28;20034;-88
2022/08/16 05:31:31;;;;;;;1.48;1.08;;;;;;;;;;4963183;28;20489;-85
2022/08/16 05:34:04;;;;;;;0.77;0.77;;;;;;;;;;4976042;28;20125;-90
2022/08/16 05:36:35;;;;;;;1.17;1.05;;;;;;;;;;4984719;28;20029;-89
2022/08/16 05:39:02;;;;;;;2.35;1.60;;;;;;;;;;5000653;28;20033;-85
2022/08/16 05:41:33;;;;;;;0.50;0.47;;;;;;;;;;4984232;28;20030;-86
2022/08/16 05:43:59;;;;;;;2.15;1.00;;;;;;;;;;4987259;28;20446;-86
2022/08/16 05:46:27;;;;;;;1.23;1.13;;;;;;;;;;4963484;28;20036;-84
2022/08/16 05:49:12;;;;;;;2.08;1.08;;;;;;;;;;4979236;28;20394;-89
2022/08/16 05:51:41;;;;;;;1.30;0.93;;;;;;;;;;4967553;28;20038;-86
2022/08/16 05:54:09;;;;;;;1.60;0.93;;;;;;;;;;4975565;28;20026;-88
2022/08/16 05:56:37;;;;;;;1.27;1.15;;;;;;;;;;4984204;28;20056;-89
2022/08/16 05:59:03;;;;;;;2.13;1.52;;;;;;;;;;4977542;28;20041;-86
2022/08/16 06:01:31;;;;;;;3.33;1.10;;;;;;;;;;4961069;28;20037;-90
2022/08/16 06:03:56;;;;;;;4.93;1.33;;;;;;;;;;4961103;28;20026;-87
2022/08/16 06:06:22;;;;;;;0.93;0.65;;;;;;;;;;4980046;28;20041;-89
2022/08/16 06:08:47;;;;;;;2.35;0.95;;;;;;;;;;4979633;28;20026;-88
2022/08/16 06:11:22;;;;;;;1.08;0.88;;;;;;;;;;4980196;28;20116;-86
2022/08/16 06:14:06;;;;;;;2.78;0.90;;;;;;;;;;4996326;28;20030;-90
2022/08/16 06:16:34;;;;;;;1.33;1.23;;;;;;;;;;4979095;28;20030;-85
2022/08/16 06:19:02;;;;;;;1.05;0.95;;;;;;;;;;4980162;28;20018;-89
2022/08/16 06:21:27;;;;;;;1.13;0.80;;;;;;;;;;4980407;28;20357;-88
2022/08/16 06:23:53;;;;;;;4.30;1.40;;;;;;;;;;4980193;28;20030;-88
2022/08/16 06:26:18;;;;;;;1.15;0.68;;;;;;;;;;4979435;28;20041;-87
2022/08/16 06:28:49;;;;;;;1.48;0.90;;;;;;;;;;4980597;28;20022;-88
2022/08/16 06:31:32;;;;;;;1.80;1.13;;;;;;;;;;4979540;28;20125;-88
2022/08/16 06:34:03;;;;;;;2.80;1.35;;;;;;;;;;4982429;28;20069;-89
2022/08/16 06:36:28;;;;;;;2.60;1.10;;;;;;;;;;4986596;28;20101;-87
2022/08/16 06:38:58;;;;;;;1.52;1.38;;;;;;;;;;4989901;28;20034;-88
2022/08/16 06:41:24;;;;;;;0.98;0.88;;;;;;;;;;4983973;28;20022;-89
2022/08/16 06:43:50;;;;;;;1.67;0.93;;;;;;;;;;4979257;28;20053;-89
2022/08/16 06:46:34;;;;;;;3.00;0.80;;;;;;;;;;4978859;28;20030;-84
2022/08/16 06:49:19;;;;;;;2.05;1.40;;;;;;;;;;4980553;28;20056;-88
2022/08/16 06:51:44;;;;;;;0.88;0.82;;;;;;;;;;4986667;28;20437;-83
2022/08/16 06:54:12;;;;;;;1.88;1.27;;;;;;;;;;5003342;28;20030;-85
2022/08/16 06:56:39;;;;;;;1.08;0.98;;;;;;;;;;4980344;28;20088;-84
2022/08/16 06:59:04;;;;;;;3.97;1.30;;;;;;;;;;4975858;28;20098;-89
2022/08/16 07:01:32;;;;;;;0.90;0.80;;;;;;;;;;4961638;28;20033;-84
2022/08/16 07:03:57;;;;;;;1.42;0.93;;;;;;;;;;4960714;28;20342;-85
2022/08/16 07:06:23;;;;;;;1.30;1.00;;;;;;;;;;4969544;28;20030;-83
2022/08/16 07:08:49;;;;;;;1.35;1.08;;;;;;;;;;4979502;28;20042;-86
2022/08/16 07:11:19;;;;;;;1.55;1.45;;;;;;;;;;4978397;28;20046;-88
2022/08/16 07:13:45;;;;;;;1.23;0.90;;;;;;;;;;4978196;28;20046;-88
2022/08/16 07:16:15;;;;;;;2.50;1.33;;;;;;;;;;4978086;28;20042;-86
2022/08/16 07:18:42;;;;;;;1.70;1.23;;;;;;;;;;4991380;28;20039;-87
2022/08/16 07:21:08;;;;;;;2.30;1.58;;;;;;;;;;4959167;28;20043;-87
2022/08/16 07:23:36;;;;;;;3.95;1.55;;;;;;;;;;4959013;28;20031;-86
2022/08/16 07:26:04;;;;;;;2.08;1.30;;;;;;;;;;4958686;28;20133;-85
2022/08/16 07:31:04;;;;;;;4.63;1.98;;;;;;;;;;5051022;23;20042;-87
2022/08/16 07:33:31;;;;;;;1.45;1.35;;;;;;;;;;5019026;28;20044;-89
2022/08/16 07:35:57;;;;;;;1.00;0.93;;;;;;;;;;5036154;28;20052;-83
2022/08/16 07:38:28;;;;;;;1.02;0.85;;;;;;;;;;5036858;28;20025;-83
2022/08/16 07:40:54;;;;;;;1.65;1.50;;;;;;;;;;5032683;28;20033;-86
2022/08/16 07:43:21;;;;;;;2.53;1.35;;;;;;;;;;5034135;28;20056;-86
2022/08/16 07:45:48;;;;;;;1.05;0.90;;;;;;;;;;5032156;28;20060;-86
2022/08/16 07:48:20;;;;;;;1.40;1.05;;;;;;;;;;5035709;28;20041;-84
2022/08/16 07:50:46;;;;;;;1.40;1.02;;;;;;;;;;5035270;28;20151;-88
2022/08/16 07:53:18;;;;;;;1.67;1.50;;;;;;;;;;5025145;28;20044;-90
2022/08/16 07:55:44;;;;;;;1.65;1.10;;;;;;;;;;5036423;28;20029;-86
2022/08/16 07:58:10;;;;;;;4.00;1.13;;;;;;;;;;5032946;28;20048;-84
2022/08/16 08:00:39;;;;;;;1.45;1.02;;;;;;;;;;5033390;28;20496;-86
2022/08/16 08:03:07;;;;;;;2.92;1.40;;;;;;;;;;5033904;28;20079;-84
2022/08/16 08:05:35;;;;;;;1.17;0.95;;;;;;;;;;5033253;28;20348;-82
2022/08/16 08:08:00;;;;;;;1.83;1.30;;;;;;;;;;5032697;28;20384;-82
2022/08/16 08:10:26;;;;;;;1.70;1.25;;;;;;;;;;5016896;28;20021;-85
2022/08/16 08:12:52;;;;;;;1.70;1.50;;;;;;;;;;5032484;28;20310;-85
2022/08/16 08:15:24;;;;;;;2.50;1.60;;;;;;;;;;5032920;28;20456;-84
2022/08/16 08:17:51;;;;;;;3.28;1.67;;;;;;;;;;5034029;28;20040;-82
2022/08/16 08:20:19;;;;;;;1.40;0.93;;;;;;;;;;5034822;28;20021;-88
2022/08/16 08:22:54;;;;;;;1.83;1.33;;;;;;;;;;5033351;28;20096;-85
2022/08/16 08:25:22;;;;;;;1.52;1.30;;;;;;;;;;5033517;28;20433;-86
2022/08/16 08:27:50;;;;;;;2.38;1.15;;;;;;;;;;5034982;28;20025;-87
2022/08/16 08:30:18;;;;;;;1.20;1.13;;;;;;;;;;5033445;28;20018;-84
2022/08/16 08:32:44;;;;;;;1.60;1.10;;;;;;;;;;5033345;28;20040;-83
2022/08/16 08:35:13;;;;;;;3.95;2.05;;;;;;;;;;5034197;28;20025;-87
2022/08/16 08:37:44;;;;;;;1.65;1.55;;;;;;;;;;5034136;28;20358;-85
2022/08/16 08:40:10;;;;;;;1.20;1.10;;;;;;;;;;5035085;28;20063;-87
2022/08/16 08:42:44;;;;;;;3.45;1.30;;;;;;;;;;5033945;28;20021;-85
2022/08/16 08:45:17;;;;;;;1.45;1.20;;;;;;;;;;5030402;28;20056;-87
2022/08/16 08:47:45;;;;;;;2.03;1.55;;;;;;;;;;5033549;28;20040;-87
2022/08/16 08:50:11;;;;;;;1.23;1.10;;;;;;;;;;5031850;28;20039;-86
2022/08/16 08:52:39;;;;;;;2.38;1.27;;;;;;;;;;5044350;28;20032;-85
2022/08/16 08:55:07;;;;;;;1.05;0.95;;;;;;;;;;5042174;28;20103;-86
2022/08/16 08:57:34;;;;;;;2.38;1.85;;;;;;;;;;5035130;28;20144;-89
2022/08/16 08:59:59;;;;;;;2.22;2.00;;;;;;;;;;5031427;28;20507;-89
2022/08/16 09:02:27;;;;;;;1.30;1.20;;;;;;;;;;5015356;28;20109;-84
2022/08/16 09:04:52;;;;;;;1.20;1.00;;;;;;;;;;5040254;28;20040;-86
2022/08/16 09:07:17;;;;;;;3.63;1.77;;;;;;;;;;5033884;28;20017;-88
2022/08/16 09:09:43;;;;;;;1.40;1.30;;;;;;;;;;5045725;28;20029;-87
2022/08/16 09:12:10;;;;;;;1.48;1.20;;;;;;;;;;5035740;28;20021;-85
2022/08/16 09:14:37;;;;;;;1.60;1.40;;;;;;;;;;5019984;28;20450;-87
2022/08/16 09:17:04;;;;;;;1.38;1.27;;;;;;;;;;5032771;28;20594;-87
2022/08/16 09:19:36;;;;;;;1.38;1.00;;;;;;;;;;5035343;28;20026;-85
2022/08/16 09:22:04;;;;;;;1.25;1.00;;;;;;;;;;5037389;28;20021;-86
2022/08/16 09:24:31;;;;;;;3.00;1.38;;;;;;;;;;5025616;28;20021;-84
2022/08/16 09:26:56;;;;;;;1.10;1.10;;;;;;;;;;5037189;28;20113;-88
2022/08/16 09:29:21;;;;;;;1.67;1.27;;;;;;;;;;5036669;28;20702;-86
2022/08/16 09:31:49;;;;;;;1.00;0.90;;;;;;;;;;5035073;28;20022;-85
2022/08/16 09:34:15;;;;;;;1.13;1.02;;;;;;;;;;5033639;28;20041;-84
2022/08/16 09:36:41;;;;;;;1.48;1.23;;;;;;;;;;5035791;28;20025;-83
2022/08/16 09:39:06;;;;;;;2.15;1.65;;;;;;;;;;5037317;28;20104;-85
2022/08/16 09:41:32;;;;;;;1.40;1.05;;;;;;;;;;5037237;28;20121;-87
2022/08/16 09:44:02;;;;;;;2.38;1.50;;;;;;;;;;5036148;28;20104;-84
2022/08/16 09:46:29;;;;;;;1.40;1.27;;;;;;;;;;5036453;28;20021;-83
2022/08/16 09:48:54;;;;;;;1.27;1.08;;;;;;;;;;5034096;28;20030;-83
2022/08/16 09:51:22;;;;;;;1.02;0.93;;;;;;;;;;5037059;28;20148;-84
2022/08/16 09:53:50;;;;;;;1.27;1.17;;;;;;;;;;5038375;28;20111;-83
2022/08/16 09:56:29;;;;;;;1.42;1.33;;;;;;;;;;5033367;28;20608;-85
2022/08/16 09:58:58;;;;;;;0.95;0.82;;;;;;;;;;5031582;28;20030;-83
2022/08/16 10:01:24;;;;;;;5.38;1.50;;;;;;;;;;5032314;28;20468;-83
2022/08/16 10:06:48;;;;;;;2.25;1.70;;;;;;;;;;5021444;28;20037;-86
2022/08/16 10:09:27;;;;;;;1.88;1.52;;;;;;;;;;5023224;28;20021;-82
2022/08/16 10:15:14;;;;;;;1.23;1.13;;;;;;;;;;5036070;28;20363;-81
2022/08/16 10:17:41;;;;;;;2.03;1.48;;;;;;;;;;5033427;28;20107;-83
2022/08/16 10:20:10;;;;;;;2.05;1.10;;;;;;;;;;5034405;28;20417;-82
2022/08/16 10:22:41;;;;;;;1.30;1.20;;;;;;;;;;5034799;28;20044;-77
2022/08/16 10:25:08;;;;;;;3.22;1.35;;;;;;;;;;5032666;28;20045;-75
2022/08/16 10:27:34;;;;;;;1.45;1.27;;;;;;;;;;5035018;28;20084;-76
2022/08/16 10:30:01;;;;;;;1.17;1.05;;;;;;;;;;5031874;28;20030;-79
2022/08/16 10:32:29;;;;;;;5.20;1.63;;;;;;;;;;5033648;28;20022;-77
2022/08/16 10:34:59;;;;;;;1.10;1.00;;;;;;;;;;5032255;28;20037;-77
2022/08/16 10:37:24;;;;;;;2.17;1.58;;;;;;;;;;5033529;28;20052;-76
2022/08/16 10:39:50;;;;;;;1.02;0.93;;;;;;;;;;5035957;28;20060;-77
2022/08/16 10:42:16;;;;;;;1.75;1.15;;;;;;;;;;5034739;28;20407;-76
2022/08/16 10:44:47;;;;;;;1.25;0.90;;;;;;;;;;5035690;28;20113;-77
2022/08/16 10:47:12;;;;;;;1.85;1.42;;;;;;;;;;5033473;28;20045;-78
2022/08/16 10:49:41;;;;;;;1.20;1.10;;;;;;;;;;5035545;28;20524;-77
2022/08/16 10:52:08;;;;;;;1.13;1.08;;;;;;;;;;5034687;28;20033;-75
2022/08/16 10:54:33;;;;;;;1.58;1.48;;;;;;;;;;5033791;28;20026;-77
2022/08/16 10:57:03;;;;;;;1.33;1.23;;;;;;;;;;5032242;28;20109;-77
2022/08/16 11:00:03;;;;;;;1.30;1.05;;;;;;;;;;5032896;28;20025;-77
2022/08/16 11:02:31;;;;;;;1.15;1.05;;;;;;;;;;5000618;28;20339;-76
2022/08/16 11:04:59;;;;;;;1.17;0.90;;;;;;;;;;5035332;28;20109;-76
2022/08/16 11:07:24;;;;;;;1.73;1.45;;;;;;;;;;5035439;28;20025;-77
2022/08/16 11:09:51;;;;;;;2.88;1.08;;;;;;;;;;5035250;28;20037;-77
2022/08/16 11:12:17;;;;;;;1.58;1.00;;;;;;;;;;5035015;28;20017;-78
2022/08/16 11:14:45;;;;;;;2.55;1.33;;;;;;;;;;5033007;28;20566;-76
2022/08/16 11:17:12;;;;;;;0.90;0.90;;;;;;;;;;5032865;28;20029;-78
2022/08/16 11:19:40;;;;;;;1.45;1.20;;;;;;;;;;5033791;28;20056;-74
2022/08/16 11:22:08;;;;;;;1.30;1.20;;;;;;;;;;5032034;28;20082;-75
2022/08/16 11:24:38;;;;;;;0.70;0.70;;;;;;;;;;5032673;28;20021;-75
2022/08/16 11:27:20;;;;;;;1.02;1.02;;;;;;;;;;5028760;28;20049;-77
2022/08/16 11:29:45;;;;;;;1.40;0.93;;;;;;;;;;5031068;28;20132;-78
2022/08/16 11:32:13;;;;;;;2.78;1.17;;;;;;;;;;5033161;28;20527;-77
2022/08/16 11:34:38;;;;;;;3.20;1.40;;;;;;;;;;5034705;28;20436;-78
2022/08/16 11:37:04;;;;;;;2.25;1.42;;;;;;;;;;5034643;28;20048;-76
2022/08/16 11:39:32;;;;;;;2.17;1.77;;;;;;;;;;5032846;28;20032;-78
2022/08/16 11:41:58;;;;;;;2.78;1.42;;;;;;;;;;5033310;28;20053;-78
2022/08/16 11:44:26;;;;;;;1.38;1.27;;;;;;;;;;5033943;28;20067;-77
2022/08/16 11:46:51;;;;;;;2.38;1.35;;;;;;;;;;5033012;28;20021;-75
2022/08/16 11:49:17;;;;;;;1.40;1.25;;;;;;;;;;5034303;28;20189;-76
2022/08/16 11:51:43;;;;;;;1.50;1.40;;;;;;;;;;5034030;28;20083;-77
2022/08/16 11:54:14;;;;;;;0.80;0.80;;;;;;;;;;5034503;28;20030;-76
2022/08/16 11:56:39;;;;;;;1.13;0.90;;;;;;;;;;5032393;28;20034;-76
2022/08/16 11:59:05;;;;;;;0.98;0.93;;;;;;;;;;5033826;28;20391;-76
2022/08/16 12:01:33;;;;;;;1.55;1.00;;;;;;;;;;5034545;28;20026;-77
2022/08/16 12:03:58;;;;;;;2.05;0.82;;;;;;;;;;5034276;28;20029;-77
2022/08/16 12:06:27;;;;;;;0.90;0.90;;;;;;;;;;5033491;28;20017;-75
2022/08/16 12:08:56;;;;;;;1.48;1.05;;;;;;;;;;5034145;28;20029;-77
2022/08/16 12:11:28;;;;;;;1.50;1.17;;;;;;;;;;5033277;28;20380;-77
2022/08/16 12:13:53;;;;;;;1.73;1.13;;;;;;;;;;5033993;28;20124;-77
2022/08/16 12:16:21;;;;;;;1.17;1.00;;;;;;;;;;5033305;28;20041;-76
2022/08/16 12:18:48;;;;;;;1.35;1.20;;;;;;;;;;5034401;28;20112;-77
2022/08/16 12:21:18;;;;;;;1.75;1.00;;;;;;;;;;5033254;28;20057;-78
2022/08/16 12:23:44;;;;;;;1.30;1.05;;;;;;;;;;5033271;28;20026;-78
2022/08/16 12:26:09;;;;;;;0.80;0.80;;;;;;;;;;5034337;28;20022;-77
2022/08/16 12:28:34;;;;;;;1.20;1.10;;;;;;;;;;5033460;28;20025;-76
2022/08/16 12:31:00;;;;;;;0.77;0.73;;;;;;;;;;5031737;28;20029;-77
2022/08/16 12:33:25;;;;;;;0.93;0.65;;;;;;;;;;5033384;28;20021;-77
2022/08/16 12:35:53;;;;;;;1.60;1.20;;;;;;;;;;5027295;28;20044;-77
2022/08/16 12:38:19;;;;;;;1.10;0.75;;;;;;;;;;5032460;28;20014;-76
2022/08/16 12:40:48;;;;;;;1.00;0.90;;;;;;;;;;5241152;22;20338;-81
2022/08/16 12:43:13;;;;;;;1.27;0.82;;;;;;;;;;5031091;28;20021;-83
2022/08/16 12:45:45;;;;;;;2.50;1.83;;;;;;;;;;5036465;28;20026;-84
2022/08/16 12:53:21;;;;;;;1.02;0.82;;;;;;;;;;5108331;23;20052;-77
2022/08/16 12:55:47;;;;;;;2.05;1.00;;;;;;;;;;5060392;28;20029;-77
2022/08/16 12:58:15;;;;;;;3.13;1.25;;;;;;;;;;5036905;28;20056;-76
2022/08/16 13:00:44;;;;;;;1.63;1.33;;;;;;;;;;5026655;28;20029;-80
2022/08/16 13:03:15;;;;;;;1.13;1.02;;;;;;;;;;5033228;28;20025;-78
2022/08/16 13:05:42;;;;;;;1.20;1.00;;;;;;;;;;5033684;28;20035;-81
2022/08/16 13:08:09;;;;;;;1.48;1.00;;;;;;;;;;5032247;28;20038;-82
2022/08/16 13:10:37;;;;;;;1.52;1.30;;;;;;;;;;5034811;28;20091;-78
2022/08/16 13:13:04;;;;;;;1.50;1.20;;;;;;;;;;5032072;28;20105;-77
2022/08/16 13:15:30;;;;;;;1.65;1.55;;;;;;;;;;5034456;28;20029;-77
2022/08/16 13:17:56;;;;;;;0.93;0.73;;;;;;;;;;5026161;28;20048;-79
2022/08/16 13:20:27;;;;;;;2.40;1.30;;;;;;;;;;5028084;28;20021;-76
2022/08/16 13:22:59;;;;;;;2.22;1.80;;;;;;;;;;5035592;28;20104;-78
2022/08/16 13:25:26;;;;;;;1.15;1.05;;;;;;;;;;5029695;28;20506;-78
2022/08/16 13:27:55;;;;;;;1.48;1.00;;;;;;;;;;5034688;28;20100;-77
2022/08/16 13:30:21;;;;;;;2.13;1.08;;;;;;;;;;5034890;28;20017;-77
2022/08/16 13:32:49;;;;;;;1.13;1.02;;;;;;;;;;5033594;28;20083;-77
2022/08/16 13:35:15;;;;;;;2.33;1.10;;;;;;;;;;5032652;28;20033;-75
2022/08/16 13:37:40;;;;;;;0.75;0.70;;;;;;;;;;5036369;28;20364;-78
2022/08/16 13:40:06;;;;;;;0.95;0.90;;;;;;;;;;5035235;28;20056;-77
2022/08/16 13:42:31;;;;;;;1.60;1.23;;;;;;;;;;5035272;28;20018;-76
2022/08/16 13:44:57;;;;;;;2.72;0.80;;;;;;;;;;5030596;28;20431;-73
2022/08/16 13:47:23;;;;;;;1.23;1.05;;;;;;;;;;5032779;28;20037;-75
2022/08/16 13:49:50;;;;;;;1.15;0.93;;;;;;;;;;5031354;28;20509;-80
2022/08/16 13:52:15;;;;;;;1.33;1.23;;;;;;;;;;5030432;28;20029;-85
2022/08/16 13:54:41;;;;;;;1.50;1.30;;;;;;;;;;5033051;28;20503;-78
2022/08/16 13:57:08;;;;;;;4.43;1.13;;;;;;;;;;4990380;28;20030;-79
2022/08/16 13:59:36;;;;;;;1.10;1.00;;;;;;;;;;5014396;28;20022;-79
2022/08/16 14:02:04;;;;;;;1.33;1.23;;;;;;;;;;5013618;28;20497;-76
2022/08/16 14:04:34;;;;;;;1.05;0.95;;;;;;;;;;5012478;28;20445;-76
2022/08/16 14:07:01;;;;;;;1.35;0.80;;;;;;;;;;5014843;28;20453;-76
2022/08/16 14:09:30;;;;;;;1.10;1.00;;;;;;;;;;5015576;28;20034;-78
2022/08/16 14:12:00;;;;;;;1.83;0.90;;;;;;;;;;5010708;28;20457;-78
2022/08/16 14:14:27;;;;;;;1.67;1.00;;;;;;;;;;5013075;28;20018;-75
2022/08/16 14:16:53;;;;;;;1.30;1.20;;;;;;;;;;5014080;28;20419;-77
2022/08/16 14:19:20;;;;;;;1.08;1.00;;;;;;;;;;5016076;28;20026;-77
2022/08/16 14:21:49;;;;;;;1.30;1.20;;;;;;;;;;5015379;28;20118;-76
2022/08/16 14:24:17;;;;;;;1.08;0.98;;;;;;;;;;5006391;28;20041;-77
2022/08/16 14:26:46;;;;;;;1.10;1.00;;;;;;;;;;5016140;28;20061;-77
2022/08/16 14:29:11;;;;;;;2.22;1.17;;;;;;;;;;5014448;28;20101;-77
2022/08/16 14:31:37;;;;;;;0.80;0.80;;;;;;;;;;5007573;28;20121;-77
2022/08/16 14:34:04;;;;;;;1.15;0.90;;;;;;;;;;5011387;28;20042;-76
2022/08/16 14:36:30;;;;;;;1.33;1.08;;;;;;;;;;5029100;28;20038;-78
2022/08/16 14:39:00;;;;;;;1.33;1.20;;;;;;;;;;5014689;28;20048;-78
2022/08/16 14:41:27;;;;;;;1.20;1.10;;;;;;;;;;5001987;28;20029;-76
2022/08/16 14:43:52;;;;;;;2.90;1.30;;;;;;;;;;5016772;28;20036;-76
2022/08/16 14:46:27;;;;;;;2.30;1.63;;;;;;;;;;5016059;28;20085;-81
2022/08/16 14:48:55;;;;;;;1.95;1.75;;;;;;;;;;5016002;28;20109;-77
2022/08/16 14:51:20;;;;;;;2.58;1.60;;;;;;;;;;4990178;28;20029;-78
2022/08/16 14:53:48;;;;;;;2.70;1.63;;;;;;;;;;4996857;28;20453;-76
2022/08/16 14:56:14;;;;;;;4.28;1.73;;;;;;;;;;5012110;28;20168;-76
2022/08/16 14:58:39;;;;;;;2.40;1.38;;;;;;;;;;5009574;28;20029;-79
2022/08/16 15:01:07;;;;;;;1.13;1.02;;;;;;;;;;5012894;28;20112;-78